sensor_id;sensor_type;location;lat;lon;timestamp;P1;durP1;ratioP1;P2;durP2;ratioP2
47381;SDS011;33128;51.580;5.170;2023-05-13T00:01:31;73.97;;;70.60;;
47381;SDS011;33128;51.580;5.170;2023-05-13T00:04:02;65.93;;;62.95;;
47381;SDS011;33128;51.580;5.170;2023-05-13T00:06:29;122.70;;;117.15;;
47381;SDS011;33128;51.580;5.170;2023-05-13T00:08:56;133.30;;;127.93;;
47381;SDS011;33128;51.580;5.170;2023-05-13T00:11:22;142.52;;;136.05;;
47381;SDS011;33128;51.580;5.170;2023-05-13T00:13:47;243.32;;;234.13;;
47381;SDS011;33128;51.580;5.170;2023-05-13T00:16:13;114.30;;;109.30;;
47381;SDS011;33128;51.580;5.170;2023-05-13T00:18:38;149.88;;;143.68;;
47381;SDS011;33128;51.580;5.170;2023-05-13T00:21:04;103.13;;;98.80;;
47381;SDS011;33128;51.580;5.170;2023-05-13T00:23:30;141.55;;;135.50;;
47381;SDS011;33128;51.580;5.170;2023-05-13T00:25:56;128.45;;;123.22;;
47381;SDS011;33128;51.580;5.170;2023-05-13T00:28:22;141.75;;;135.52;;
47381;SDS011;33128;51.580;5.170;2023-05-13T00:30:48;123.00;;;118.05;;
47381;SDS011;33128;51.580;5.170;2023-05-13T00:33:14;106.85;;;102.07;;
47381;SDS011;33128;51.580;5.170;2023-05-13T00:35:39;96.70;;;92.38;;
47381;SDS011;33128;51.580;5.170;2023-05-13T00:38:05;78.07;;;74.57;;
47381;SDS011;33128;51.580;5.170;2023-05-13T00:40:31;135.43;;;129.75;;
47381;SDS011;33128;51.580;5.170;2023-05-13T00:43:00;127.00;;;105.53;;
47381;SDS011;33128;51.580;5.170;2023-05-13T00:45:29;117.18;;;111.82;;
47381;SDS011;33128;51.580;5.170;2023-05-13T00:47:54;91.93;;;88.00;;
47381;SDS011;33128;51.580;5.170;2023-05-13T00:50:20;89.88;;;85.57;;
47381;SDS011;33128;51.580;5.170;2023-05-13T00:52:47;84.97;;;81.25;;
47381;SDS011;33128;51.580;5.170;2023-05-13T00:55:15;105.53;;;100.95;;
47381;SDS011;33128;51.580;5.170;2023-05-13T00:57:41;112.65;;;108.00;;
47381;SDS011;33128;51.580;5.170;2023-05-13T01:00:07;95.97;;;91.75;;
47381;SDS011;33128;51.580;5.170;2023-05-13T01:11:18;95.95;;;91.57;;
47381;SDS011;33128;51.580;5.170;2023-05-13T01:13:46;70.82;;;67.68;;
47381;SDS011;33128;51.580;5.170;2023-05-13T01:16:17;83.88;;;79.78;;
47381;SDS011;33128;51.580;5.170;2023-05-13T01:19:16;64.47;;;61.63;;
47381;SDS011;33128;51.580;5.170;2023-05-13T01:21:50;97.60;;;93.53;;
47381;SDS011;33128;51.580;5.170;2023-05-13T01:24:16;82.00;;;78.20;;
47381;SDS011;33128;51.580;5.170;2023-05-13T01:26:42;71.57;;;68.40;;
47381;SDS011;33128;51.580;5.170;2023-05-13T01:29:10;88.35;;;84.45;;
47381;SDS011;33128;51.580;5.170;2023-05-13T01:31:36;89.47;;;85.53;;
47381;SDS011;33128;51.580;5.170;2023-05-13T01:34:03;86.70;;;83.00;;
47381;SDS011;33128;51.580;5.170;2023-05-13T01:36:30;87.72;;;83.43;;
47381;SDS011;33128;51.580;5.170;2023-05-13T01:38:56;105.05;;;100.45;;
47381;SDS011;33128;51.580;5.170;2023-05-13T01:41:24;92.50;;;88.10;;
47381;SDS011;33128;51.580;5.170;2023-05-13T01:43:50;100.05;;;95.93;;
47381;SDS011;33128;51.580;5.170;2023-05-13T01:46:19;98.13;;;93.65;;
47381;SDS011;33128;51.580;5.170;2023-05-13T01:48:44;82.15;;;78.57;;
47381;SDS011;33128;51.580;5.170;2023-05-13T01:51:10;148.38;;;142.38;;
47381;SDS011;33128;51.580;5.170;2023-05-13T01:53:36;177.38;;;170.43;;
47381;SDS011;33128;51.580;5.170;2023-05-13T01:56:01;103.57;;;99.32;;
47381;SDS011;33128;51.580;5.170;2023-05-13T01:58:27;114.60;;;109.35;;
47381;SDS011;33128;51.580;5.170;2023-05-13T02:00:52;93.75;;;89.80;;
47381;SDS011;33128;51.580;5.170;2023-05-13T02:03:18;121.00;;;115.60;;
47381;SDS011;33128;51.580;5.170;2023-05-13T02:05:45;122.05;;;117.05;;
47381;SDS011;33128;51.580;5.170;2023-05-13T02:08:11;142.77;;;136.95;;
47381;SDS011;33128;51.580;5.170;2023-05-13T02:10:37;107.82;;;103.43;;
47381;SDS011;33128;51.580;5.170;2023-05-13T02:13:02;108.28;;;103.63;;
47381;SDS011;33128;51.580;5.170;2023-05-13T02:15:28;128.25;;;122.65;;
47381;SDS011;33128;51.580;5.170;2023-05-13T02:17:53;127.85;;;122.68;;
47381;SDS011;33128;51.580;5.170;2023-05-13T02:20:19;141.60;;;135.70;;
47381;SDS011;33128;51.580;5.170;2023-05-13T02:22:45;146.43;;;140.52;;
47381;SDS011;33128;51.580;5.170;2023-05-13T02:25:10;94.28;;;90.10;;
47381;SDS011;33128;51.580;5.170;2023-05-13T02:27:36;200.13;;;82.95;;
47381;SDS011;33128;51.580;5.170;2023-05-13T02:30:02;129.40;;;123.97;;
47381;SDS011;33128;51.580;5.170;2023-05-13T02:32:27;89.15;;;85.03;;
47381;SDS011;33128;51.580;5.170;2023-05-13T02:34:53;67.55;;;64.57;;
47381;SDS011;33128;51.580;5.170;2023-05-13T02:37:19;102.45;;;97.93;;
47381;SDS011;33128;51.580;5.170;2023-05-13T02:39:44;89.25;;;85.55;;
47381;SDS011;33128;51.580;5.170;2023-05-13T02:42:10;85.30;;;81.43;;
47381;SDS011;33128;51.580;5.170;2023-05-13T02:44:35;88.50;;;84.57;;
47381;SDS011;33128;51.580;5.170;2023-05-13T02:47:01;83.60;;;80.10;;
47381;SDS011;33128;51.580;5.170;2023-05-13T02:49:26;64.15;;;60.40;;
47381;SDS011;33128;51.580;5.170;2023-05-13T02:51:52;118.55;;;113.75;;
47381;SDS011;33128;51.580;5.170;2023-05-13T02:54:18;107.80;;;102.95;;
47381;SDS011;33128;51.580;5.170;2023-05-13T02:56:43;101.45;;;97.18;;
47381;SDS011;33128;51.580;5.170;2023-05-13T02:59:09;67.53;;;64.35;;
47381;SDS011;33128;51.580;5.170;2023-05-13T03:01:35;86.38;;;82.70;;
47381;SDS011;33128;51.580;5.170;2023-05-13T03:04:00;65.72;;;62.90;;
47381;SDS011;33128;51.580;5.170;2023-05-13T03:06:26;64.18;;;60.75;;
47381;SDS011;33128;51.580;5.170;2023-05-13T03:08:52;67.38;;;64.30;;
47381;SDS011;33128;51.580;5.170;2023-05-13T03:11:17;109.10;;;104.30;;
47381;SDS011;33128;51.580;5.170;2023-05-13T03:13:43;97.85;;;93.60;;
47381;SDS011;33128;51.580;5.170;2023-05-13T03:16:08;75.80;;;72.10;;
47381;SDS011;33128;51.580;5.170;2023-05-13T03:18:34;85.80;;;82.05;;
47381;SDS011;33128;51.580;5.170;2023-05-13T03:21:00;80.20;;;76.65;;
47381;SDS011;33128;51.580;5.170;2023-05-13T03:23:25;84.63;;;80.85;;
47381;SDS011;33128;51.580;5.170;2023-05-13T03:25:51;72.78;;;69.63;;
47381;SDS011;33128;51.580;5.170;2023-05-13T03:28:18;83.82;;;80.00;;
47381;SDS011;33128;51.580;5.170;2023-05-13T03:30:43;137.48;;;131.88;;
47381;SDS011;33128;51.580;5.170;2023-05-13T03:33:09;80.40;;;76.93;;
47381;SDS011;33128;51.580;5.170;2023-05-13T03:35:35;125.95;;;120.63;;
47381;SDS011;33128;51.580;5.170;2023-05-13T03:38:00;88.63;;;84.88;;
47381;SDS011;33128;51.580;5.170;2023-05-13T03:40:26;130.45;;;124.65;;
47381;SDS011;33128;51.580;5.170;2023-05-13T03:42:51;89.97;;;86.05;;
47381;SDS011;33128;51.580;5.170;2023-05-13T03:45:17;95.18;;;90.97;;
47381;SDS011;33128;51.580;5.170;2023-05-13T03:47:43;83.80;;;80.28;;
47381;SDS011;33128;51.580;5.170;2023-05-13T03:50:08;111.70;;;106.68;;
47381;SDS011;33128;51.580;5.170;2023-05-13T03:52:34;108.40;;;103.75;;
47381;SDS011;33128;51.580;5.170;2023-05-13T03:55:00;81.90;;;78.35;;
47381;SDS011;33128;51.580;5.170;2023-05-13T03:57:25;106.80;;;101.90;;
47381;SDS011;33128;51.580;5.170;2023-05-13T03:59:51;78.43;;;75.05;;
47381;SDS011;33128;51.580;5.170;2023-05-13T04:02:16;86.47;;;82.32;;
47381;SDS011;33128;51.580;5.170;2023-05-13T04:04:42;83.80;;;80.22;;
47381;SDS011;33128;51.580;5.170;2023-05-13T04:07:09;115.22;;;110.40;;
47381;SDS011;33128;51.580;5.170;2023-05-13T04:09:44;82.65;;;78.97;;
47381;SDS011;33128;51.580;5.170;2023-05-13T04:12:09;80.47;;;76.93;;
47381;SDS011;33128;51.580;5.170;2023-05-13T04:14:35;102.78;;;98.50;;
47381;SDS011;33128;51.580;5.170;2023-05-13T04:17:00;95.60;;;91.57;;
47381;SDS011;33128;51.580;5.170;2023-05-13T04:19:26;99.53;;;94.90;;
47381;SDS011;33128;51.580;5.170;2023-05-13T04:21:51;71.00;;;67.80;;
47381;SDS011;33128;51.580;5.170;2023-05-13T04:24:17;70.35;;;67.00;;
47381;SDS011;33128;51.580;5.170;2023-05-13T04:26:43;70.53;;;67.30;;
47381;SDS011;33128;51.580;5.170;2023-05-13T04:29:14;81.63;;;77.95;;
47381;SDS011;33128;51.580;5.170;2023-05-13T04:31:41;78.30;;;74.90;;
47381;SDS011;33128;51.580;5.170;2023-05-13T04:34:08;108.70;;;104.13;;
47381;SDS011;33128;51.580;5.170;2023-05-13T04:36:33;78.10;;;74.68;;
47381;SDS011;33128;51.580;5.170;2023-05-13T04:38:59;116.50;;;111.80;;
47381;SDS011;33128;51.580;5.170;2023-05-13T04:41:24;99.80;;;94.93;;
47381;SDS011;33128;51.580;5.170;2023-05-13T04:43:50;97.35;;;93.30;;
47381;SDS011;33128;51.580;5.170;2023-05-13T04:46:16;83.95;;;80.05;;
47381;SDS011;33128;51.580;5.170;2023-05-13T04:48:41;149.77;;;143.80;;
47381;SDS011;33128;51.580;5.170;2023-05-13T04:51:09;94.43;;;90.45;;
47381;SDS011;33128;51.580;5.170;2023-05-13T04:53:35;173.35;;;166.35;;
47381;SDS011;33128;51.580;5.170;2023-05-13T04:56:00;112.32;;;107.20;;
47381;SDS011;33128;51.580;5.170;2023-05-13T04:58:26;152.23;;;145.45;;
47381;SDS011;33128;51.580;5.170;2023-05-13T05:00:52;234.85;;;226.10;;
47381;SDS011;33128;51.580;5.170;2023-05-13T05:03:18;125.93;;;120.43;;
47381;SDS011;33128;51.580;5.170;2023-05-13T05:05:44;169.48;;;162.85;;
47381;SDS011;33128;51.580;5.170;2023-05-13T05:08:10;191.07;;;183.60;;
47381;SDS011;33128;51.580;5.170;2023-05-13T05:10:36;149.45;;;143.45;;
47381;SDS011;33128;51.580;5.170;2023-05-13T05:13:01;157.68;;;151.40;;
47381;SDS011;33128;51.580;5.170;2023-05-13T05:15:30;145.00;;;138.65;;
47381;SDS011;33128;51.580;5.170;2023-05-13T05:17:56;140.18;;;134.52;;
47381;SDS011;33128;51.580;5.170;2023-05-13T05:20:22;135.77;;;129.70;;
47381;SDS011;33128;51.580;5.170;2023-05-13T05:22:48;116.05;;;111.22;;
47381;SDS011;33128;51.580;5.170;2023-05-13T05:25:14;153.90;;;147.15;;
47381;SDS011;33128;51.580;5.170;2023-05-13T05:27:40;128.63;;;123.35;;
47381;SDS011;33128;51.580;5.170;2023-05-13T05:30:07;176.00;;;169.02;;
47381;SDS011;33128;51.580;5.170;2023-05-13T05:32:34;133.90;;;128.18;;
47381;SDS011;33128;51.580;5.170;2023-05-13T05:35:02;169.05;;;162.05;;
47381;SDS011;33128;51.580;5.170;2023-05-13T05:37:28;156.45;;;149.55;;
47381;SDS011;33128;51.580;5.170;2023-05-13T05:39:54;163.80;;;157.20;;
47381;SDS011;33128;51.580;5.170;2023-05-13T05:42:20;163.93;;;156.75;;
47381;SDS011;33128;51.580;5.170;2023-05-13T05:44:45;140.10;;;134.38;;
47381;SDS011;33128;51.580;5.170;2023-05-13T05:47:11;200.82;;;193.02;;
47381;SDS011;33128;51.580;5.170;2023-05-13T05:49:37;145.38;;;139.35;;
47381;SDS011;33128;51.580;5.170;2023-05-13T05:52:04;144.73;;;138.50;;
47381;SDS011;33128;51.580;5.170;2023-05-13T05:54:30;168.77;;;161.77;;
47381;SDS011;33128;51.580;5.170;2023-05-13T05:56:56;143.45;;;137.55;;
47381;SDS011;33128;51.580;5.170;2023-05-13T05:59:21;172.80;;;165.30;;
47381;SDS011;33128;51.580;5.170;2023-05-13T06:01:47;190.32;;;183.07;;
47381;SDS011;33128;51.580;5.170;2023-05-13T06:04:13;183.05;;;175.60;;
47381;SDS011;33128;51.580;5.170;2023-05-13T06:06:38;189.02;;;181.52;;
47381;SDS011;33128;51.580;5.170;2023-05-13T06:09:04;189.27;;;181.60;;
47381;SDS011;33128;51.580;5.170;2023-05-13T06:11:30;174.35;;;167.02;;
47381;SDS011;33128;51.580;5.170;2023-05-13T06:13:56;183.50;;;176.25;;
47381;SDS011;33128;51.580;5.170;2023-05-13T06:16:21;182.65;;;174.80;;
47381;SDS011;33128;51.580;5.170;2023-05-13T06:18:47;203.50;;;195.82;;
47381;SDS011;33128;51.580;5.170;2023-05-13T06:21:13;169.00;;;162.00;;
47381;SDS011;33128;51.580;5.170;2023-05-13T06:23:39;143.48;;;137.52;;
47381;SDS011;33128;51.580;5.170;2023-05-13T06:26:05;134.80;;;129.15;;
47381;SDS011;33128;51.580;5.170;2023-05-13T06:28:30;136.90;;;131.13;;
47381;SDS011;33128;51.580;5.170;2023-05-13T06:30:56;116.18;;;111.40;;
47381;SDS011;33128;51.580;5.170;2023-05-13T06:33:24;143.98;;;137.63;;
47381;SDS011;33128;51.580;5.170;2023-05-13T06:35:50;183.52;;;176.18;;
47381;SDS011;33128;51.580;5.170;2023-05-13T06:38:15;139.32;;;133.23;;
47381;SDS011;33128;51.580;5.170;2023-05-13T06:40:42;116.75;;;112.00;;
47381;SDS011;33128;51.580;5.170;2023-05-13T06:43:08;155.38;;;149.10;;
47381;SDS011;33128;51.580;5.170;2023-05-13T06:45:36;141.15;;;135.27;;
47381;SDS011;33128;51.580;5.170;2023-05-13T06:48:02;115.88;;;111.05;;
47381;SDS011;33128;51.580;5.170;2023-05-13T06:50:28;127.95;;;122.35;;
47381;SDS011;33128;51.580;5.170;2023-05-13T06:52:53;117.38;;;112.45;;
47381;SDS011;33128;51.580;5.170;2023-05-13T06:55:19;130.93;;;125.15;;
47381;SDS011;33128;51.580;5.170;2023-05-13T06:57:45;111.65;;;107.00;;
47381;SDS011;33128;51.580;5.170;2023-05-13T07:00:11;115.57;;;110.82;;
47381;SDS011;33128;51.580;5.170;2023-05-13T07:02:41;137.52;;;131.82;;
47381;SDS011;33128;51.580;5.170;2023-05-13T07:05:08;109.43;;;104.78;;
47381;SDS011;33128;51.580;5.170;2023-05-13T07:07:35;104.22;;;99.82;;
47381;SDS011;33128;51.580;5.170;2023-05-13T07:10:00;109.40;;;104.78;;
47381;SDS011;33128;51.580;5.170;2023-05-13T07:12:26;116.40;;;111.18;;
47381;SDS011;33128;51.580;5.170;2023-05-13T07:14:52;96.70;;;92.55;;
47381;SDS011;33128;51.580;5.170;2023-05-13T07:17:17;119.00;;;113.72;;
47381;SDS011;33128;51.580;5.170;2023-05-13T07:19:43;98.20;;;94.05;;
47381;SDS011;33128;51.580;5.170;2023-05-13T07:22:08;94.20;;;90.10;;
47381;SDS011;33128;51.580;5.170;2023-05-13T07:24:34;100.63;;;96.30;;
47381;SDS011;33128;51.580;5.170;2023-05-13T07:27:00;117.22;;;112.40;;
47381;SDS011;33128;51.580;5.170;2023-05-13T07:29:25;110.95;;;105.97;;
47381;SDS011;33128;51.580;5.170;2023-05-13T07:31:51;101.55;;;97.32;;
47381;SDS011;33128;51.580;5.170;2023-05-13T07:34:17;104.60;;;99.90;;
47381;SDS011;33128;51.580;5.170;2023-05-13T07:36:43;104.03;;;99.70;;
47381;SDS011;33128;51.580;5.170;2023-05-13T07:39:09;152.07;;;146.00;;
47381;SDS011;33128;51.580;5.170;2023-05-13T07:41:35;98.82;;;94.68;;
47381;SDS011;33128;51.580;5.170;2023-05-13T07:44:01;97.85;;;93.80;;
47381;SDS011;33128;51.580;5.170;2023-05-13T07:46:26;124.10;;;118.75;;
47381;SDS011;33128;51.580;5.170;2023-05-13T07:48:52;122.72;;;117.75;;
47381;SDS011;33128;51.580;5.170;2023-05-13T07:51:18;126.28;;;120.80;;
47381;SDS011;33128;51.580;5.170;2023-05-13T07:53:43;111.32;;;106.75;;
47381;SDS011;33128;51.580;5.170;2023-05-13T07:56:11;107.72;;;103.22;;
47381;SDS011;33128;51.580;5.170;2023-05-13T07:58:36;119.85;;;114.93;;
47381;SDS011;33128;51.580;5.170;2023-05-13T08:01:02;109.78;;;105.22;;
47381;SDS011;33128;51.580;5.170;2023-05-13T08:03:29;141.40;;;135.38;;
47381;SDS011;33128;51.580;5.170;2023-05-13T08:05:55;114.43;;;109.68;;
47381;SDS011;33128;51.580;5.170;2023-05-13T08:08:20;134.77;;;129.02;;
47381;SDS011;33128;51.580;5.170;2023-05-13T08:10:46;107.25;;;102.85;;
47381;SDS011;33128;51.580;5.170;2023-05-13T08:13:12;107.50;;;102.93;;
47381;SDS011;33128;51.580;5.170;2023-05-13T08:15:38;105.93;;;101.43;;
47381;SDS011;33128;51.580;5.170;2023-05-13T08:18:03;127.53;;;122.13;;
47381;SDS011;33128;51.580;5.170;2023-05-13T08:20:29;124.40;;;119.05;;
47381;SDS011;33128;51.580;5.170;2023-05-13T08:22:57;120.60;;;115.78;;
47381;SDS011;33128;51.580;5.170;2023-05-13T08:25:25;138.57;;;132.20;;
47381;SDS011;33128;51.580;5.170;2023-05-13T08:27:50;129.20;;;124.03;;
47381;SDS011;33128;51.580;5.170;2023-05-13T08:30:16;125.30;;;119.50;;
47381;SDS011;33128;51.580;5.170;2023-05-13T08:32:41;125.82;;;120.65;;
47381;SDS011;33128;51.580;5.170;2023-05-13T08:35:07;120.15;;;115.05;;
47381;SDS011;33128;51.580;5.170;2023-05-13T08:37:33;140.40;;;134.63;;
47381;SDS011;33128;51.580;5.170;2023-05-13T08:40:02;115.47;;;110.78;;
47381;SDS011;33128;51.580;5.170;2023-05-13T08:42:28;133.77;;;127.80;;
47381;SDS011;33128;51.580;5.170;2023-05-13T08:44:57;126.90;;;121.75;;
47381;SDS011;33128;51.580;5.170;2023-05-13T08:50:03;108.65;;;103.85;;
47381;SDS011;33128;51.580;5.170;2023-05-13T08:52:30;148.75;;;142.43;;
47381;SDS011;33128;51.580;5.170;2023-05-13T08:54:57;107.88;;;103.30;;
47381;SDS011;33128;51.580;5.170;2023-05-13T08:57:26;115.28;;;109.90;;
47381;SDS011;33128;51.580;5.170;2023-05-13T08:59:52;97.72;;;93.57;;
47381;SDS011;33128;51.580;5.170;2023-05-13T09:02:21;102.82;;;98.07;;
47381;SDS011;33128;51.580;5.170;2023-05-13T09:04:47;90.75;;;86.80;;
47381;SDS011;33128;51.580;5.170;2023-05-13T09:07:17;102.53;;;97.75;;
47381;SDS011;33128;51.580;5.170;2023-05-13T09:09:42;117.75;;;112.85;;
47381;SDS011;33128;51.580;5.170;2023-05-13T09:12:09;102.53;;;98.15;;
47381;SDS011;33128;51.580;5.170;2023-05-13T09:14:35;108.60;;;103.97;;
47381;SDS011;33128;51.580;5.170;2023-05-13T09:17:01;100.30;;;96.05;;
47381;SDS011;33128;51.580;5.170;2023-05-13T09:19:27;102.65;;;97.85;;
47381;SDS011;33128;51.580;5.170;2023-05-13T09:21:53;98.72;;;94.63;;
47381;SDS011;33128;51.580;5.170;2023-05-13T09:24:19;118.57;;;113.30;;
47381;SDS011;33128;51.580;5.170;2023-05-13T09:26:48;102.20;;;97.95;;
47381;SDS011;33128;51.580;5.170;2023-05-13T09:29:22;123.45;;;118.07;;
47381;SDS011;33128;51.580;5.170;2023-05-13T09:31:53;103.78;;;99.43;;
47381;SDS011;33128;51.580;5.170;2023-05-13T09:34:33;140.60;;;134.48;;
47381;SDS011;33128;51.580;5.170;2023-05-13T09:37:02;118.90;;;113.88;;
47381;SDS011;33128;51.580;5.170;2023-05-13T09:39:30;106.07;;;101.55;;
47381;SDS011;33128;51.580;5.170;2023-05-13T09:41:59;129.18;;;123.93;;
47381;SDS011;33128;51.580;5.170;2023-05-13T09:44:37;121.72;;;116.40;;
47381;SDS011;33128;51.580;5.170;2023-05-13T09:47:02;104.07;;;99.68;;
47381;SDS011;33128;51.580;5.170;2023-05-13T09:49:30;113.47;;;108.22;;
47381;SDS011;33128;51.580;5.170;2023-05-13T09:51:58;97.35;;;93.30;;
47381;SDS011;33128;51.580;5.170;2023-05-13T09:54:24;130.57;;;124.65;;
47381;SDS011;33128;51.580;5.170;2023-05-13T09:56:56;101.57;;;97.35;;
47381;SDS011;33128;51.580;5.170;2023-05-13T09:59:22;138.93;;;132.63;;
47381;SDS011;33128;51.580;5.170;2023-05-13T10:01:48;122.07;;;116.97;;
47381;SDS011;33128;51.580;5.170;2023-05-13T10:04:13;114.10;;;109.25;;
47381;SDS011;33128;51.580;5.170;2023-05-13T10:06:39;134.18;;;128.70;;
47381;SDS011;33128;51.580;5.170;2023-05-13T10:09:05;130.82;;;125.20;;
47381;SDS011;33128;51.580;5.170;2023-05-13T10:11:36;90.28;;;86.35;;
47381;SDS011;33128;51.580;5.170;2023-05-13T10:14:04;92.75;;;88.78;;
47381;SDS011;33128;51.580;5.170;2023-05-13T10:16:32;113.50;;;108.65;;
47381;SDS011;33128;51.580;5.170;2023-05-13T10:18:59;86.60;;;82.93;;
47381;SDS011;33128;51.580;5.170;2023-05-13T10:21:25;106.65;;;101.60;;
47381;SDS011;33128;51.580;5.170;2023-05-13T10:23:51;88.93;;;85.20;;
47381;SDS011;33128;51.580;5.170;2023-05-13T10:26:18;99.32;;;94.70;;
47381;SDS011;33128;51.580;5.170;2023-05-13T10:28:45;89.85;;;86.07;;
47381;SDS011;33128;51.580;5.170;2023-05-13T10:31:12;111.68;;;106.70;;
47381;SDS011;33128;51.580;5.170;2023-05-13T10:33:38;97.15;;;92.85;;
47381;SDS011;33128;51.580;5.170;2023-05-13T10:45:09;119.25;;;114.07;;
47381;SDS011;33128;51.580;5.170;2023-05-13T10:47:35;92.80;;;88.65;;
47381;SDS011;33128;51.580;5.170;2023-05-13T10:50:04;85.05;;;81.43;;
47381;SDS011;33128;51.580;5.170;2023-05-13T10:55:31;108.00;;;103.10;;
47381;SDS011;33128;51.580;5.170;2023-05-13T10:58:08;95.82;;;91.72;;
47381;SDS011;33128;51.580;5.170;2023-05-13T11:00:39;87.13;;;83.38;;
47381;SDS011;33128;51.580;5.170;2023-05-13T11:05:45;99.00;;;94.80;;
47381;SDS011;33128;51.580;5.170;2023-05-13T11:08:39;100.85;;;96.30;;
47381;SDS011;33128;51.580;5.170;2023-05-13T11:14:03;95.18;;;91.22;;
47381;SDS011;33128;51.580;5.170;2023-05-13T11:19:32;108.50;;;103.57;;
47381;SDS011;33128;51.580;5.170;2023-05-13T11:25:06;95.83;;;91.87;;
47381;SDS011;33128;51.580;5.170;2023-05-13T11:27:39;87.05;;;83.38;;
47381;SDS011;33128;51.580;5.170;2023-05-13T11:30:07;114.38;;;109.45;;
47381;SDS011;33128;51.580;5.170;2023-05-13T11:32:51;81.45;;;78.00;;
47381;SDS011;33128;51.580;5.170;2023-05-13T11:35:29;115.45;;;110.05;;
47381;SDS011;33128;51.580;5.170;2023-05-13T11:37:57;99.47;;;95.30;;
47381;SDS011;33128;51.580;5.170;2023-05-13T11:40:24;114.25;;;109.10;;
47381;SDS011;33128;51.580;5.170;2023-05-13T11:43:03;121.00;;;116.03;;
47381;SDS011;33128;51.580;5.170;2023-05-13T11:45:29;136.95;;;131.27;;
47381;SDS011;33128;51.580;5.170;2023-05-13T11:47:57;106.65;;;102.25;;
47381;SDS011;33128;51.580;5.170;2023-05-13T11:50:25;120.72;;;115.38;;
47381;SDS011;33128;51.580;5.170;2023-05-13T11:52:58;104.13;;;99.88;;
47381;SDS011;33128;51.580;5.170;2023-05-13T11:55:25;116.45;;;111.05;;
47381;SDS011;33128;51.580;5.170;2023-05-13T11:57:56;90.97;;;86.97;;
47381;SDS011;33128;51.580;5.170;2023-05-13T12:00:29;101.93;;;97.30;;
47381;SDS011;33128;51.580;5.170;2023-05-13T12:02:56;83.60;;;80.03;;
47381;SDS011;33128;51.580;5.170;2023-05-13T12:05:23;115.70;;;110.45;;
47381;SDS011;33128;51.580;5.170;2023-05-13T12:07:50;88.65;;;84.97;;
47381;SDS011;33128;51.580;5.170;2023-05-13T12:10:22;120.50;;;115.40;;
47381;SDS011;33128;51.580;5.170;2023-05-13T12:12:52;80.43;;;77.05;;
47381;SDS011;33128;51.580;5.170;2023-05-13T12:15:18;92.55;;;88.32;;
47381;SDS011;33128;51.580;5.170;2023-05-13T12:17:45;77.18;;;73.93;;
47381;SDS011;33128;51.580;5.170;2023-05-13T12:20:14;103.60;;;99.20;;
47381;SDS011;33128;51.580;5.170;2023-05-13T12:31:03;189.52;;;102.03;;
47381;SDS011;33128;51.580;5.170;2023-05-13T12:33:50;111.78;;;106.90;;
47381;SDS011;33128;51.580;5.170;2023-05-13T12:36:19;79.28;;;75.68;;
47381;SDS011;33128;51.580;5.170;2023-05-13T12:41:25;93.80;;;89.68;;
47381;SDS011;33128;51.580;5.170;2023-05-13T12:43:56;93.45;;;89.63;;
47381;SDS011;33128;51.580;5.170;2023-05-13T12:46:23;87.95;;;84.15;;
47381;SDS011;33128;51.580;5.170;2023-05-13T12:48:51;104.28;;;100.03;;
47381;SDS011;33128;51.580;5.170;2023-05-13T12:51:21;87.60;;;83.57;;
47381;SDS011;33128;51.580;5.170;2023-05-13T12:53:46;71.25;;;68.15;;
47381;SDS011;33128;51.580;5.170;2023-05-13T12:56:12;70.15;;;67.05;;
47381;SDS011;33128;51.580;5.170;2023-05-13T12:58:38;69.93;;;66.82;;
47381;SDS011;33128;51.580;5.170;2023-05-13T13:01:03;70.15;;;67.00;;
47381;SDS011;33128;51.580;5.170;2023-05-13T13:03:29;73.55;;;70.32;;
47381;SDS011;33128;51.580;5.170;2023-05-13T13:05:55;78.60;;;75.25;;
47381;SDS011;33128;51.580;5.170;2023-05-13T13:08:22;90.18;;;85.93;;
47381;SDS011;33128;51.580;5.170;2023-05-13T13:10:47;101.38;;;97.32;;
47381;SDS011;33128;51.580;5.170;2023-05-13T13:13:13;76.57;;;73.28;;
47381;SDS011;33128;51.580;5.170;2023-05-13T13:15:41;87.53;;;83.55;;
47381;SDS011;33128;51.580;5.170;2023-05-13T13:18:07;84.93;;;81.28;;
47381;SDS011;33128;51.580;5.170;2023-05-13T13:20:33;76.20;;;72.78;;
47381;SDS011;33128;51.580;5.170;2023-05-13T13:22:59;91.93;;;88.05;;
47381;SDS011;33128;51.580;5.170;2023-05-13T13:25:25;72.72;;;69.38;;
47381;SDS011;33128;51.580;5.170;2023-05-13T13:27:53;95.80;;;91.88;;
47381;SDS011;33128;51.580;5.170;2023-05-13T13:30:18;91.22;;;86.97;;
47381;SDS011;33128;51.580;5.170;2023-05-13T13:32:44;81.78;;;78.28;;
47381;SDS011;33128;51.580;5.170;2023-05-13T13:35:10;74.47;;;71.20;;
47381;SDS011;33128;51.580;5.170;2023-05-13T13:37:35;106.22;;;101.82;;
47381;SDS011;33128;51.580;5.170;2023-05-13T13:40:01;104.90;;;100.45;;
47381;SDS011;33128;51.580;5.170;2023-05-13T13:42:27;87.60;;;83.22;;
47381;SDS011;33128;51.580;5.170;2023-05-13T13:44:52;97.43;;;93.47;;
47381;SDS011;33128;51.580;5.170;2023-05-13T13:47:18;90.03;;;85.60;;
47381;SDS011;33128;51.580;5.170;2023-05-13T13:49:43;69.93;;;66.82;;
47381;SDS011;33128;51.580;5.170;2023-05-13T13:52:09;65.82;;;62.83;;
47381;SDS011;33128;51.580;5.170;2023-05-13T13:54:35;60.22;;;57.45;;
47381;SDS011;33128;51.580;5.170;2023-05-13T13:57:00;63.05;;;60.25;;
47381;SDS011;33128;51.580;5.170;2023-05-13T13:59:26;85.70;;;81.57;;
47381;SDS011;33128;51.580;5.170;2023-05-13T14:01:51;70.85;;;67.72;;
47381;SDS011;33128;51.580;5.170;2023-05-13T14:04:18;93.10;;;89.03;;
47381;SDS011;33128;51.580;5.170;2023-05-13T14:06:47;79.35;;;75.97;;
47381;SDS011;33128;51.580;5.170;2023-05-13T14:09:13;61.10;;;58.25;;
47381;SDS011;33128;51.580;5.170;2023-05-13T14:11:39;60.60;;;57.83;;
47381;SDS011;33128;51.580;5.170;2023-05-13T14:14:05;60.83;;;58.13;;
47381;SDS011;33128;51.580;5.170;2023-05-13T14:16:32;73.95;;;70.57;;
47381;SDS011;33128;51.580;5.170;2023-05-13T14:18:58;59.40;;;56.80;;
47381;SDS011;33128;51.580;5.170;2023-05-13T14:21:23;60.63;;;57.75;;
47381;SDS011;33128;51.580;5.170;2023-05-13T14:23:49;55.50;;;53.10;;
47381;SDS011;33128;51.580;5.170;2023-05-13T14:26:15;65.78;;;62.55;;
47381;SDS011;33128;51.580;5.170;2023-05-13T14:28:43;56.60;;;54.10;;
47381;SDS011;33128;51.580;5.170;2023-05-13T14:31:09;90.40;;;86.63;;
47381;SDS011;33128;51.580;5.170;2023-05-13T14:33:35;57.83;;;55.17;;
47381;SDS011;33128;51.580;5.170;2023-05-13T14:36:01;77.70;;;74.35;;
47381;SDS011;33128;51.580;5.170;2023-05-13T14:38:26;76.88;;;72.90;;
47381;SDS011;33128;51.580;5.170;2023-05-13T14:40:53;72.57;;;69.60;;
47381;SDS011;33128;51.580;5.170;2023-05-13T14:43:22;71.03;;;67.43;;
47381;SDS011;33128;51.580;5.170;2023-05-13T14:45:48;70.72;;;67.78;;
47381;SDS011;33128;51.580;5.170;2023-05-13T14:48:14;77.15;;;73.47;;
47381;SDS011;33128;51.580;5.170;2023-05-13T14:50:40;98.15;;;94.13;;
47381;SDS011;33128;51.580;5.170;2023-05-13T14:53:10;58.47;;;55.75;;